createdAt,value
2023-10-23T00:01:26.286Z,10.30
2023-10-23T00:03:59.612Z,12.10
2023-10-23T00:06:32.656Z,9.60
2023-10-23T00:09:05.673Z,13.00
2023-10-23T00:11:38.341Z,11.20
2023-10-23T00:14:10.808Z,9.40
2023-10-23T00:16:47.521Z,9.90
2023-10-23T00:19:20.255Z,11.20
2023-10-23T00:21:52.820Z,13.00
2023-10-23T00:24:25.455Z,9.80
2023-10-23T00:26:57.911Z,10.30
2023-10-23T00:29:30.227Z,8.60
2023-10-23T00:32:02.706Z,8.90
2023-10-23T00:34:35.261Z,8.70
2023-10-23T00:37:08.128Z,10.70
2023-10-23T00:39:41.086Z,10.50
2023-10-23T00:42:14.291Z,7.70
2023-10-23T00:44:46.815Z,7.90
2023-10-23T00:47:19.821Z,9.40
2023-10-23T00:49:52.254Z,7.80
2023-10-23T00:52:26.509Z,9.60
2023-10-23T00:55:00.465Z,8.30
2023-10-23T00:57:34.064Z,9.50
2023-10-23T01:00:08.006Z,11.80
2023-10-23T01:02:41.050Z,9.80
2023-10-23T01:05:15.156Z,9.70
2023-10-23T01:07:47.744Z,10.60
2023-10-23T01:10:20.584Z,9.60
2023-10-23T01:12:57.452Z,10.20
2023-10-23T01:15:32.638Z,11.80
2023-10-23T01:18:05.445Z,9.40
2023-10-23T01:20:38.124Z,10.40
2023-10-23T01:23:10.752Z,10.60
2023-10-23T01:25:45.107Z,11.60
2023-10-23T01:28:18.288Z,14.90
2023-10-23T01:30:51.014Z,15.80
2023-10-23T01:33:23.575Z,18.60
2023-10-23T01:35:56.140Z,19.60
2023-10-23T01:38:28.780Z,17.00
2023-10-23T01:41:01.307Z,18.20
2023-10-23T01:43:34.014Z,20.50
2023-10-23T01:46:06.502Z,19.30
2023-10-23T01:48:41.431Z,20.60
2023-10-23T01:51:13.870Z,20.30
2023-10-23T01:53:46.595Z,22.80
2023-10-23T01:56:19.226Z,23.40
2023-10-23T01:58:52.781Z,20.00
2023-10-23T02:01:28.385Z,20.80
2023-10-23T02:04:02.084Z,19.00
2023-10-23T02:06:34.842Z,19.80
2023-10-23T02:09:09.299Z,20.10
2023-10-23T02:11:42.237Z,20.10
2023-10-23T02:14:16.361Z,22.10
2023-10-23T02:16:49.079Z,19.30
2023-10-23T02:19:21.482Z,21.20
2023-10-23T02:21:54.049Z,19.80
2023-10-23T02:24:27.032Z,20.30
2023-10-23T02:27:02.139Z,19.80
2023-10-23T02:29:34.639Z,19.90
2023-10-23T02:32:07.906Z,21.00
2023-10-23T02:34:41.368Z,20.50
2023-10-23T02:37:14.091Z,18.40
2023-10-23T02:39:47.248Z,25.50
2023-10-23T02:42:19.929Z,19.70
2023-10-23T02:44:52.381Z,20.40
2023-10-23T02:47:24.858Z,19.40
2023-10-23T02:49:58.147Z,20.80
2023-10-23T02:52:32.821Z,20.90
2023-10-23T02:55:05.718Z,19.90
2023-10-23T02:57:38.222Z,21.00
2023-10-23T03:00:12.329Z,22.30
2023-10-23T03:02:45.814Z,22.80
2023-10-23T03:05:18.814Z,23.80
2023-10-23T03:07:51.839Z,22.40
2023-10-23T03:10:24.409Z,24.10
2023-10-23T03:12:57.102Z,24.40
2023-10-23T03:15:30.287Z,23.40
2023-10-23T03:18:05.307Z,23.60
2023-10-23T03:20:38.085Z,24.80
2023-10-23T03:23:10.910Z,23.10
2023-10-23T03:25:43.904Z,22.40
2023-10-23T03:28:17.877Z,24.00
2023-10-23T03:30:51.276Z,22.40
2023-10-23T03:33:24.019Z,26.50
2023-10-23T03:35:56.541Z,25.10
2023-10-23T03:38:28.872Z,26.00
2023-10-23T03:41:04.244Z,23.80
2023-10-23T03:43:36.604Z,25.40
2023-10-23T03:46:09.429Z,26.80
2023-10-23T03:48:43.259Z,28.20
2023-10-23T03:51:15.795Z,27.90
2023-10-23T03:53:50.321Z,28.60
2023-10-23T03:56:22.782Z,29.40
2023-10-23T03:58:55.461Z,27.10
2023-10-23T04:01:28.185Z,25.20
2023-10-23T04:04:00.974Z,23.30
2023-10-23T04:06:35.730Z,29.00
2023-10-23T04:09:08.775Z,24.10
2023-10-23T04:11:41.113Z,23.30
2023-10-23T04:14:13.531Z,23.30
2023-10-23T04:16:46.183Z,22.40
2023-10-23T04:19:21.522Z,21.50
2023-10-23T04:21:53.899Z,22.30
2023-10-23T04:24:26.609Z,21.40
2023-10-23T04:26:58.937Z,21.20
2023-10-23T04:29:31.463Z,21.30
2023-10-23T04:32:05.610Z,20.50
2023-10-23T04:34:38.161Z,19.10
2023-10-23T04:37:10.703Z,19.70
2023-10-23T04:39:43.419Z,20.30
2023-10-23T04:42:15.936Z,19.20
2023-10-23T04:44:51.298Z,18.40
2023-10-23T04:47:23.916Z,17.80
2023-10-23T04:49:56.588Z,15.90
2023-10-23T04:52:28.876Z,16.90
2023-10-23T04:55:01.274Z,18.50
2023-10-23T04:57:36.567Z,15.30
2023-10-23T05:00:12.305Z,17.30
2023-10-23T05:02:44.597Z,15.10
2023-10-23T05:05:17.622Z,12.80
2023-10-23T05:07:50.276Z,12.80
2023-10-23T05:10:24.125Z,13.10
2023-10-23T05:12:57.369Z,12.80
2023-10-23T05:15:30.391Z,11.00
2023-10-23T05:18:03.450Z,12.90
2023-10-23T05:20:38.657Z,12.80
2023-10-23T05:23:13.288Z,12.00
2023-10-23T05:25:49.176Z,10.60
2023-10-23T05:28:21.719Z,9.80
2023-10-23T05:30:55.902Z,11.20
2023-10-23T05:33:28.806Z,9.30
2023-10-23T05:36:10.645Z,11.70
2023-10-23T05:38:43.196Z,10.30
2023-10-23T05:41:15.834Z,11.10
2023-10-23T05:43:50.359Z,10.60
2023-10-23T05:46:25.058Z,9.10
2023-10-23T05:48:58.049Z,9.30
2023-10-23T05:51:30.369Z,10.10
2023-10-23T05:54:04.250Z,10.40
2023-10-23T05:56:36.887Z,9.60
2023-10-23T05:59:10.896Z,10.90
2023-10-23T06:01:43.512Z,9.70
2023-10-23T06:04:16.147Z,12.40
2023-10-23T06:06:49.034Z,10.40
2023-10-23T06:09:21.727Z,11.90
2023-10-23T06:11:54.510Z,10.60
2023-10-23T06:14:27.157Z,9.40
2023-10-23T06:17:00.859Z,9.30
2023-10-23T06:19:34.801Z,10.20
2023-10-23T06:22:09.487Z,9.80
2023-10-23T06:24:43.046Z,10.40
2023-10-23T06:27:15.620Z,9.70
2023-10-23T06:29:51.381Z,9.00
2023-10-23T06:32:24.045Z,8.60
2023-10-23T06:34:56.518Z,9.70
2023-10-23T06:37:29.151Z,10.00
2023-10-23T06:40:01.888Z,8.90
2023-10-23T06:42:34.764Z,10.50
2023-10-23T06:45:08.556Z,8.40
2023-10-23T06:47:42.010Z,9.10
2023-10-23T06:50:15.023Z,8.80
2023-10-23T06:52:47.984Z,7.70
2023-10-23T06:55:20.820Z,7.60
2023-10-23T06:57:53.810Z,8.50
2023-10-23T07:00:26.672Z,8.50
2023-10-23T07:02:59.392Z,7.20
2023-10-23T07:05:33.034Z,8.50
2023-10-23T07:08:06.092Z,8.20
2023-10-23T07:10:39.427Z,9.60
2023-10-23T07:13:22.102Z,7.90
2023-10-23T07:15:55.914Z,7.20
2023-10-23T07:18:29.859Z,7.40
2023-10-23T07:21:04.620Z,8.60
2023-10-23T07:23:37.306Z,8.10
2023-10-23T07:26:14.441Z,8.20
2023-10-23T07:28:47.187Z,6.10
2023-10-23T07:31:20.566Z,11.00
2023-10-23T07:33:55.697Z,10.00
2023-10-23T07:36:28.306Z,6.80
2023-10-23T07:39:02.539Z,8.40
2023-10-23T07:41:34.946Z,6.40
2023-10-23T07:44:07.863Z,7.50
2023-10-23T07:46:41.198Z,7.30
2023-10-23T07:49:14.367Z,8.70
2023-10-23T07:51:47.189Z,5.20
2023-10-23T07:54:20.152Z,4.50
2023-10-23T07:56:56.610Z,9.00
2023-10-23T07:59:31.556Z,7.70
2023-10-23T08:02:04.481Z,6.30
2023-10-23T08:04:37.082Z,6.60
2023-10-23T08:07:09.978Z,6.10
2023-10-23T08:09:45.356Z,10.20
2023-10-23T08:12:18.444Z,6.90
2023-10-23T08:14:51.928Z,8.60
2023-10-23T08:20:05.349Z,4.70
2023-10-23T08:22:38.249Z,4.00
2023-10-23T08:25:11.643Z,5.50
2023-10-23T08:27:44.347Z,5.10
2023-10-23T08:30:24.542Z,5.00
2023-10-23T08:32:57.465Z,6.60
2023-10-23T08:35:35.260Z,6.20
2023-10-23T08:38:09.989Z,5.20
2023-10-23T08:40:43.324Z,7.20
2023-10-23T08:43:16.240Z,7.10
2023-10-23T08:45:55.823Z,8.30
2023-10-23T08:48:29.305Z,8.00
2023-10-23T08:51:04.623Z,6.70
2023-10-23T08:53:41.183Z,9.20
2023-10-23T08:56:14.893Z,8.70
2023-10-23T08:58:58.105Z,7.20
2023-10-23T09:01:32.586Z,7.50
2023-10-23T09:04:08.553Z,7.50
2023-10-23T09:06:42.141Z,5.80
2023-10-23T09:09:14.980Z,7.30
2023-10-23T09:11:50.026Z,5.70
2023-10-23T09:14:29.831Z,6.10
2023-10-23T09:17:05.101Z,7.50
2023-10-23T09:19:41.386Z,9.40
2023-10-23T09:22:14.431Z,7.90
2023-10-23T09:24:48.115Z,7.10
2023-10-23T09:27:25.877Z,6.70
2023-10-23T09:30:08.322Z,5.80
2023-10-23T09:32:41.643Z,5.70
2023-10-23T09:35:14.821Z,6.90
2023-10-23T09:37:47.668Z,8.20
2023-10-23T09:40:20.557Z,8.40
2023-10-23T09:42:53.459Z,6.90
2023-10-23T09:45:26.557Z,6.60
2023-10-23T09:48:02.061Z,8.20
2023-10-23T09:50:37.656Z,8.20
2023-10-23T09:53:12.854Z,5.90
2023-10-23T09:55:45.850Z,6.20
2023-10-23T09:58:23.032Z,5.30
2023-10-23T10:00:58.359Z,5.80
2023-10-23T10:03:35.807Z,6.40
2023-10-23T10:06:18.637Z,7.60
2023-10-23T10:08:53.408Z,5.00
2023-10-23T10:11:27.675Z,7.20
2023-10-23T10:14:01.154Z,4.30
2023-10-23T10:16:39.036Z,3.50
2023-10-23T10:19:13.535Z,4.80
2023-10-23T10:21:53.521Z,6.10
2023-10-23T10:24:27.993Z,4.90
2023-10-23T10:27:05.132Z,4.40
2023-10-23T10:29:37.934Z,5.80
2023-10-23T10:32:13.957Z,4.60
2023-10-23T10:34:58.333Z,6.00
2023-10-23T10:37:33.912Z,8.10
2023-10-23T10:40:11.070Z,6.20
2023-10-23T10:42:47.207Z,4.90
2023-10-23T10:45:22.057Z,6.60
2023-10-23T10:47:56.117Z,3.40
2023-10-23T10:50:37.225Z,4.90
2023-10-23T10:53:15.608Z,5.50
2023-10-23T10:55:50.270Z,5.30
2023-10-23T10:58:23.390Z,7.70
2023-10-23T11:00:55.964Z,5.30
2023-10-23T11:03:31.764Z,7.20
2023-10-23T11:06:05.659Z,4.20
2023-10-23T11:08:42.721Z,4.00
2023-10-23T11:11:16.037Z,5.20
2023-10-23T11:13:49.428Z,5.10
2023-10-23T11:16:22.865Z,4.20
2023-10-23T11:18:58.075Z,6.00
2023-10-23T11:21:30.808Z,6.20
2023-10-23T11:24:05.390Z,6.20
2023-10-23T11:26:38.438Z,5.40
2023-10-23T11:29:13.101Z,4.80
2023-10-23T11:31:46.786Z,5.20
2023-10-23T11:34:20.639Z,6.10
2023-10-23T11:36:54.028Z,3.60
2023-10-23T11:39:26.643Z,4.10
2023-10-23T11:42:01.752Z,7.20
2023-10-23T11:44:36.288Z,6.70
2023-10-23T11:47:09.970Z,6.00
2023-10-23T11:49:49.862Z,12.50
2023-10-23T11:52:24.843Z,9.20
2023-10-23T11:54:57.982Z,6.50
2023-10-23T11:57:30.704Z,6.40
2023-10-23T12:00:08.284Z,7.10
2023-10-23T12:02:46.221Z,6.30
2023-10-23T12:05:22.959Z,5.10
2023-10-23T12:07:57.255Z,6.50
2023-10-23T12:10:30.193Z,4.10
2023-10-23T12:13:03.949Z,5.60
2023-10-23T12:15:39.121Z,8.10
2023-10-23T12:18:12.545Z,5.70
2023-10-23T12:20:44.954Z,5.30
2023-10-23T12:23:17.774Z,5.00
2023-10-23T12:25:50.456Z,5.50
2023-10-23T12:28:23.147Z,5.60
2023-10-23T12:30:55.840Z,4.40
2023-10-23T12:33:36.088Z,6.20
2023-10-23T12:36:11.454Z,5.60
2023-10-23T12:38:45.562Z,4.80
2023-10-23T12:41:17.949Z,5.50
2023-10-23T12:43:50.561Z,4.90
2023-10-23T12:46:23.985Z,5.40
2023-10-23T12:48:56.648Z,3.50
2023-10-23T12:51:29.378Z,5.50
2023-10-23T12:54:04.454Z,7.30
2023-10-23T12:56:36.818Z,7.10
2023-10-23T12:59:09.404Z,5.90
2023-10-23T13:01:42.018Z,6.10
2023-10-23T13:04:14.649Z,6.30
2023-10-23T13:06:47.618Z,6.10
2023-10-23T13:09:20.230Z,6.50
2023-10-23T13:11:54.468Z,6.60
2023-10-23T13:14:27.600Z,7.60
2023-10-23T13:17:02.817Z,7.30
2023-10-23T13:19:35.615Z,4.80
2023-10-23T13:22:11.893Z,7.40
2023-10-23T13:24:44.680Z,4.90
2023-10-23T13:27:18.021Z,4.50
2023-10-23T13:29:50.753Z,6.00
2023-10-23T13:32:23.116Z,6.20
2023-10-23T13:34:55.646Z,4.60
2023-10-23T13:37:28.607Z,5.90
2023-10-23T13:40:01.188Z,5.90
2023-10-23T13:42:37.960Z,4.80
2023-10-23T13:45:13.220Z,6.50
2023-10-23T13:47:49.546Z,4.90
2023-10-23T13:50:21.945Z,4.70
2023-10-23T13:52:55.835Z,5.90
2023-10-23T13:55:28.690Z,6.70
2023-10-23T13:58:04.418Z,6.10
2023-10-23T14:00:36.688Z,6.30
2023-10-23T14:03:09.769Z,5.90
2023-10-23T14:05:44.488Z,6.80
2023-10-23T14:08:17.091Z,5.90
2023-10-23T14:11:58.538Z,6.20
2023-10-23T14:13:42.816Z,4.30
2023-10-23T14:16:16.227Z,7.10
2023-10-23T14:18:49.043Z,6.00
2023-10-23T14:21:21.627Z,6.30
2023-10-23T14:23:54.419Z,5.10
2023-10-23T14:26:30.440Z,7.20
2023-10-23T14:29:02.829Z,7.10
2023-10-23T14:31:35.342Z,4.00
2023-10-23T14:34:08.126Z,6.00
2023-10-23T14:36:42.746Z,4.70
2023-10-23T14:39:15.225Z,7.10
2023-10-23T14:41:47.742Z,5.90
2023-10-23T14:44:20.144Z,9.30
2023-10-23T14:46:54.013Z,5.80
2023-10-23T14:49:26.783Z,6.60
2023-10-23T14:51:59.858Z,7.20
2023-10-23T14:54:32.378Z,10.60
2023-10-23T14:57:05.333Z,8.20
2023-10-23T14:59:37.988Z,7.60
2023-10-23T15:02:13.389Z,6.20
2023-10-23T15:04:46.119Z,7.70
2023-10-23T15:07:19.020Z,7.10
2023-10-23T15:09:51.912Z,10.10
2023-10-23T15:12:24.533Z,10.60
2023-10-23T15:14:59.257Z,16.40
2023-10-23T15:17:31.747Z,7.60
2023-10-23T15:20:04.600Z,8.80
2023-10-23T15:22:37.174Z,9.70
2023-10-23T15:25:12.163Z,14.50
2023-10-23T15:27:44.762Z,12.50
2023-10-23T15:30:17.923Z,12.30
2023-10-23T15:32:50.634Z,13.40
2023-10-23T15:35:25.528Z,13.50
2023-10-23T15:37:59.723Z,12.90
2023-10-23T15:40:32.730Z,13.90
2023-10-23T15:43:05.174Z,16.70
2023-10-23T15:45:41.057Z,17.60
2023-10-23T15:48:13.662Z,17.10
2023-10-23T15:50:46.314Z,17.30
2023-10-23T15:53:19.581Z,20.10
2023-10-23T15:55:52.196Z,19.50
2023-10-23T15:58:28.203Z,20.70
2023-10-23T16:01:03.696Z,25.00
2023-10-23T16:03:38.208Z,21.70
2023-10-23T16:06:11.005Z,22.80
2023-10-23T16:08:43.722Z,28.50
2023-10-23T16:11:20.768Z,29.20
2023-10-23T16:13:53.490Z,28.60
2023-10-23T16:16:25.986Z,28.00
2023-10-23T16:18:58.667Z,25.70
2023-10-23T16:21:32.064Z,28.80
2023-10-23T16:24:06.064Z,23.80
2023-10-23T16:26:38.362Z,30.20
2023-10-23T16:29:10.957Z,25.20
2023-10-23T16:31:43.374Z,29.70
2023-10-23T16:34:16.161Z,26.00
2023-10-23T16:36:50.244Z,26.00
2023-10-23T16:39:23.044Z,25.50
2023-10-23T16:41:55.720Z,26.60
2023-10-23T16:44:37.533Z,26.50
2023-10-23T16:47:17.461Z,25.40
2023-10-23T16:49:53.182Z,26.00
2023-10-23T16:52:25.797Z,28.70
2023-10-23T16:55:00.028Z,26.60
2023-10-23T16:57:33.997Z,27.60
2023-10-23T17:00:07.797Z,30.40
2023-10-23T17:02:40.691Z,32.60
2023-10-23T17:05:13.997Z,30.30
2023-10-23T17:07:46.799Z,28.00
2023-10-23T17:10:20.695Z,30.40
2023-10-23T17:12:53.598Z,35.60
2023-10-23T17:15:29.420Z,38.80
2023-10-23T17:18:03.393Z,38.60
2023-10-23T17:20:39.948Z,34.00
2023-10-23T17:23:12.340Z,34.10
2023-10-23T17:25:46.992Z,38.10
2023-10-23T17:28:19.731Z,41.30
2023-10-23T17:31:00.199Z,35.90
2023-10-23T17:33:35.103Z,37.00
2023-10-23T17:36:08.729Z,37.30
2023-10-23T17:38:41.173Z,35.80
2023-10-23T17:41:18.531Z,35.70
2023-10-23T17:43:50.980Z,31.30
2023-10-23T17:46:23.774Z,33.60
2023-10-23T17:48:56.680Z,36.10
2023-10-23T17:51:31.581Z,34.60
2023-10-23T17:54:06.655Z,36.20
2023-10-23T17:56:39.158Z,36.80
2023-10-23T17:59:12.736Z,38.20
2023-10-23T18:01:47.318Z,34.70
2023-10-23T18:04:20.402Z,37.50
2023-10-23T18:06:54.297Z,35.10
2023-10-23T18:09:28.159Z,36.10
2023-10-23T18:12:02.011Z,35.80
2023-10-23T18:14:34.956Z,36.30
2023-10-23T18:17:07.702Z,36.80
2023-10-23T18:19:40.322Z,38.00
2023-10-23T18:22:13.023Z,36.70
2023-10-23T18:24:46.088Z,35.60
2023-10-23T18:27:18.603Z,41.30
2023-10-23T18:29:51.838Z,44.90
2023-10-23T18:32:24.872Z,45.30
2023-10-23T18:34:58.543Z,39.10
2023-10-23T18:37:31.146Z,44.60
2023-10-23T18:40:03.769Z,41.70
2023-10-23T18:42:38.329Z,45.90
2023-10-23T18:45:12.001Z,44.00
2023-10-23T18:47:44.465Z,45.60
2023-10-23T18:50:17.191Z,54.20
2023-10-23T18:52:51.617Z,48.60
2023-10-23T18:55:25.572Z,49.00
2023-10-23T18:57:58.616Z,49.30
2023-10-23T19:00:31.191Z,47.20
2023-10-23T19:03:04.024Z,49.70
2023-10-23T19:05:38.605Z,47.30
2023-10-23T19:08:11.205Z,47.10
2023-10-23T19:10:43.802Z,45.00
2023-10-23T19:13:16.535Z,44.90
2023-10-23T19:15:56.151Z,49.80
2023-10-23T19:18:31.246Z,49.30
2023-10-23T19:21:06.476Z,43.80
2023-10-23T19:23:39.486Z,45.90
2023-10-23T19:26:12.216Z,40.90
2023-10-23T19:28:45.960Z,39.50
2023-10-23T19:31:23.245Z,37.00
2023-10-23T19:33:58.414Z,37.30
2023-10-23T19:36:33.838Z,36.10
2023-10-23T19:39:09.191Z,39.90
2023-10-23T19:41:49.847Z,39.70
2023-10-23T19:44:25.895Z,43.00
2023-10-23T19:46:59.390Z,40.90
2023-10-23T19:49:33.135Z,40.70
2023-10-23T19:52:12.286Z,40.00
2023-10-23T19:54:51.135Z,44.00
2023-10-23T19:57:25.839Z,42.50
2023-10-23T19:59:58.543Z,47.20
2023-10-23T20:02:31.083Z,44.30
2023-10-23T20:05:05.906Z,46.00
2023-10-23T20:07:38.553Z,46.90
2023-10-23T20:10:14.797Z,44.70
2023-10-23T20:12:48.766Z,47.40
2023-10-23T20:15:22.321Z,49.00
2023-10-23T20:17:54.920Z,54.50
2023-10-23T20:20:27.856Z,48.70
2023-10-23T20:23:00.381Z,51.30
2023-10-23T20:25:33.827Z,52.90
2023-10-23T20:28:07.887Z,52.40
2023-10-23T20:30:40.314Z,51.70
2023-10-23T20:33:13.051Z,50.50
2023-10-23T20:35:46.736Z,53.00
2023-10-23T20:38:19.300Z,53.80
2023-10-23T20:40:53.511Z,51.80
2023-10-23T20:43:26.736Z,56.60
2023-10-23T20:46:01.530Z,53.70
2023-10-23T20:48:34.491Z,47.20
2023-10-23T20:51:11.483Z,48.90
2023-10-23T20:53:44.392Z,45.00
2023-10-23T20:56:16.888Z,50.40
2023-10-23T20:58:49.387Z,42.60
2023-10-23T21:01:22.225Z,41.50
2023-10-23T21:03:55.086Z,41.90
2023-10-23T21:06:33.757Z,40.20
2023-10-23T21:09:06.732Z,38.70
2023-10-23T21:11:39.340Z,36.70
2023-10-23T21:14:12.097Z,41.00
2023-10-23T21:16:44.674Z,40.90
2023-10-23T21:19:18.982Z,42.10
2023-10-23T21:21:51.942Z,41.30
2023-10-23T21:24:24.420Z,41.10
2023-10-23T21:26:57.142Z,42.50
2023-10-23T21:29:29.605Z,80.70
2023-10-23T21:32:02.306Z,98.00
2023-10-23T21:34:34.931Z,59.20
2023-10-23T21:37:07.584Z,39.90
2023-10-23T21:39:40.182Z,42.90
2023-10-23T21:42:13.616Z,38.80
2023-10-23T21:44:46.084Z,40.10
2023-10-23T21:47:18.853Z,39.40
2023-10-23T21:49:53.264Z,39.90
2023-10-23T21:52:27.102Z,45.00
2023-10-23T21:55:02.534Z,44.30
2023-10-23T21:57:36.687Z,42.30
2023-10-23T22:00:19.010Z,49.60
2023-10-23T22:02:52.181Z,39.40
2023-10-23T22:05:27.517Z,38.90
2023-10-23T22:08:01.046Z,37.10
2023-10-23T22:10:34.521Z,35.10
2023-10-23T22:13:09.100Z,46.20
2023-10-23T22:15:41.878Z,42.40
2023-10-23T22:18:16.052Z,37.50
2023-10-23T22:20:48.909Z,33.70
2023-10-23T22:23:21.548Z,29.70
2023-10-23T22:25:54.438Z,33.60
2023-10-23T22:28:26.720Z,34.50
2023-10-23T22:31:00.658Z,34.60
2023-10-23T22:33:33.318Z,35.40
2023-10-23T22:36:05.927Z,35.90
2023-10-23T22:38:38.465Z,37.10
2023-10-23T22:41:10.810Z,35.90
2023-10-23T22:43:43.867Z,38.70
2023-10-23T22:46:16.408Z,114.60
2023-10-23T22:48:49.149Z,61.60
2023-10-23T22:51:22.474Z,41.20
2023-10-23T22:53:55.739Z,41.50
2023-10-23T22:56:29.974Z,44.00
2023-10-23T22:59:08.499Z,51.20
2023-10-23T23:01:42.587Z,41.20
2023-10-23T23:04:16.566Z,34.60
2023-10-23T23:06:53.478Z,37.20
2023-10-23T23:09:27.226Z,33.00
2023-10-23T23:12:00.685Z,33.10
2023-10-23T23:14:34.055Z,33.50
2023-10-23T23:17:08.142Z,32.30
2023-10-23T23:19:44.124Z,30.90
2023-10-23T23:22:17.023Z,33.00
2023-10-23T23:24:49.409Z,32.60
2023-10-23T23:27:22.025Z,32.70
2023-10-23T23:29:55.461Z,34.70
2023-10-23T23:32:29.883Z,94.10
2023-10-23T23:35:02.525Z,121.80
2023-10-23T23:37:34.913Z,90.70
2023-10-23T23:40:08.777Z,85.50
2023-10-23T23:42:41.410Z,117.30
2023-10-23T23:45:15.511Z,82.40
2023-10-23T23:47:48.043Z,92.00
2023-10-23T23:50:20.576Z,159.90
2023-10-23T23:52:54.510Z,99.80
2023-10-23T23:55:28.186Z,125.30
2023-10-23T23:58:00.871Z,94.30
